KOUN

University of Oklahoma Westheimer Airport

Norman, Oklahoma, USA
KOUN 211731Z 2118/2218 03007KT P6SM SCT150 SCT250 FM212000 09008KT P6SM FEW150 SCT250
Issued Valid From Valid To
Jul-21 @ 17:31 UTC
(5 hours ago)
Jul-21 @ 18:00 UTC
(5 hours ago)
Jul-22 @ 18:00 UTC
(in 19 hours)
Expired Click to View Jul-21 @ 18:00 to Jul-21 @ 20:00
KOUN 211731Z 2118/2218 03007KT P6SM SCT150 SCT250
Wind Visibility Clouds
30° at 7 knots Greater than 6 miles
  • Scattered at 15,000' AGL
  • Scattered at 25,000' AGL
From Jul-21 @ 20:00 to Jul-22 @ 18:00
FM212000 09008KT P6SM FEW150 SCT250
Wind Visibility Clouds
90° at 8 knots Greater than 6 miles
  • Few at 15,000' AGL
  • Scattered at 25,000' AGL
KOUN 211731Z 2118/2218 03007KT P6SM SCT150 SCT250 FM212000 09008KT P6SM FEW150 SCT250
Issued Jul-21 @ 17:31 UTC
(5 hours ago)
Valid From Jul-21 @ 18:00 UTC
(5 hours ago)
Valid To Jul-22 @ 18:00 UTC
(in 19 hours)
Jul-21 @ 18:00 - Jul-21 @ 20:00
Wind Visibility
30° at 7 knots Greater than 6 miles
Clouds
  • Scattered at 15,000' AGL
  • Scattered at 25,000' AGL
From Jul-21 @ 20:00 - Jul-22 @ 18:00
Wind Visibility
90° at 8 knots Greater than 6 miles
Clouds
  • Few at 15,000' AGL
  • Scattered at 25,000' AGL